Time;durP1;ratioP1;P1;durP2;ratioP2;P2;SDS_P1;SDS_P2;PMS_P1;PMS_P2;Temp;Humidity;BMP_temperature;BMP_pressure;BME280_temperature;BME280_humidity;BME280_pressure;Samples;Min_cycle;Max_cycle;Signal;HPM_P1;HPM_P2
2022/05/18 00:00:45;;;;;;;10.13;4.20;;;18.60;99.90;;;;;;5021348;28;20514;-88
2022/05/18 00:03:12;;;;;;;8.53;4.33;;;18.50;99.90;;;;;;5022672;28;20458;-88
2022/05/18 00:05:42;;;;;;;5.33;4.07;;;18.50;99.90;;;;;;5021641;28;20986;-86
2022/05/18 00:08:12;;;;;;;6.20;3.57;;;18.40;99.90;;;;;;5022600;28;20516;-86
2022/05/18 00:10:44;;;;;;;10.80;3.80;;;18.20;99.90;;;;;;5021121;28;20442;-86
2022/05/18 00:13:12;;;;;;;6.63;4.13;;;18.20;99.90;;;;;;5020418;28;20976;-86
2022/05/18 00:15:43;;;;;;;6.40;3.80;;;18.10;99.90;;;;;;5033200;28;20484;-86
2022/05/18 00:18:10;;;;;;;6.80;3.73;;;18.10;99.90;;;;;;5035130;28;20450;-87
2022/05/18 00:20:39;;;;;;;6.83;4.10;;;18.20;99.90;;;;;;5019918;28;20488;-86
2022/05/18 00:23:08;;;;;;;7.63;4.47;;;18.20;99.90;;;;;;5019621;28;20462;-87
2022/05/18 00:25:41;;;;;;;6.47;4.17;;;18.20;99.90;;;;;;5019778;28;20541;-87
2022/05/18 00:28:09;;;;;;;6.67;3.70;;;18.20;99.90;;;;;;5025268;28;20414;-86
2022/05/18 00:30:38;;;;;;;6.70;4.53;;;18.10;99.90;;;;;;5040750;28;20446;-87
2022/05/18 00:33:06;;;;;;;6.43;3.67;;;17.90;99.90;;;;;;5041536;28;20486;-87
2022/05/18 00:35:35;;;;;;;6.60;3.70;;;18.00;99.90;;;;;;5036296;28;20443;-86
2022/05/18 00:38:08;;;;;;;5.50;4.27;;;17.90;99.90;;;;;;5021840;28;20457;-86
2022/05/18 00:40:37;;;;;;;7.63;4.10;;;17.90;99.90;;;;;;5027305;28;20474;-86
2022/05/18 00:43:04;;;;;;;8.23;4.03;;;17.90;99.90;;;;;;5021979;28;20450;-86
2022/05/18 00:45:34;;;;;;;5.77;4.20;;;17.90;99.90;;;;;;5038739;28;20453;-85
2022/05/18 00:48:01;;;;;;;6.10;3.83;;;17.80;99.90;;;;;;5041274;28;20438;-86
2022/05/18 00:50:33;;;;;;;6.37;3.73;;;17.70;99.90;;;;;;5030209;28;20461;-86
2022/05/18 00:55:52;;;;;;;4.90;3.13;;;17.60;99.90;;;;;;5033581;28;20803;-87
2022/05/18 00:58:23;;;;;;;6.10;3.80;;;17.40;99.90;;;;;;5020897;28;20419;-88
2022/05/18 01:04:04;;;;;;;6.77;3.83;;;17.50;99.90;;;;;;4943185;28;20501;-86
2022/05/18 01:06:36;;;;;;;5.13;3.63;;;17.50;99.90;;;;;;5019922;28;20454;-87
2022/05/18 01:09:10;;;;;;;7.70;3.90;;;17.50;99.90;;;;;;5019862;28;20837;-88
2022/05/18 01:11:42;;;;;;;7.03;4.03;;;17.50;99.90;;;;;;5019724;28;20527;-87
2022/05/18 01:14:13;;;;;;;5.53;3.87;;;17.50;99.90;;;;;;5019251;28;20482;-87
2022/05/18 01:16:41;;;;;;;4.93;4.00;;;17.40;99.90;;;;;;5031981;28;20439;-88
2022/05/18 01:19:13;;;;;;;5.27;3.73;;;17.30;99.90;;;;;;5027663;28;20496;-88
2022/05/18 01:21:46;;;;;;;7.03;4.37;;;17.40;99.90;;;;;;5018736;28;20486;-88
2022/05/18 01:24:24;;;;;;;6.17;4.60;;;17.40;99.90;;;;;;5021413;28;20830;-86
2022/05/18 01:26:55;;;;;;;5.20;3.67;;;17.40;99.90;;;;;;5021277;28;20474;-87
2022/05/18 01:29:24;;;;;;;5.80;4.23;;;17.40;99.90;;;;;;5018996;28;20866;-87
2022/05/18 01:32:00;;;;;;;5.67;4.13;;;17.30;99.90;;;;;;5017815;28;20447;-87
2022/05/18 01:34:30;;;;;;;5.30;3.70;;;17.40;99.90;;;;;;5018188;28;20837;-87
2022/05/18 01:36:57;;;;;;;7.07;3.60;;;17.40;99.90;;;;;;5017749;28;20442;-87
2022/05/18 01:39:31;;;;;;;5.60;3.60;;;17.40;99.90;;;;;;5018268;28;20458;-86
2022/05/18 01:42:11;;;;;;;12.50;4.30;;;17.20;99.90;;;;;;5020621;28;20481;-86
2022/05/18 01:44:40;;;;;;;5.90;4.27;;;17.20;99.90;;;;;;5022805;28;20516;-87
2022/05/18 01:47:08;;;;;;;7.30;3.87;;;17.10;99.90;;;;;;5032824;28;20461;-87
2022/05/18 01:49:38;;;;;;;6.73;4.60;;;17.20;99.90;;;;;;5018185;28;20852;-86
2022/05/18 01:52:06;;;;;;;7.20;3.93;;;17.00;99.90;;;;;;5018350;28;20461;-87
2022/05/18 01:54:38;;;;;;;6.17;4.10;;;17.10;99.90;;;;;;5017706;28;20491;-87
2022/05/18 01:57:07;;;;;;;6.40;3.67;;;17.00;99.90;;;;;;5020337;28;20450;-86
2022/05/18 01:59:34;;;;;;;5.53;4.10;;;17.00;99.90;;;;;;5027046;28;20451;-86
2022/05/18 02:02:01;;;;;;;6.93;4.30;;;16.90;99.90;;;;;;5028671;28;20498;-87
2022/05/18 02:04:32;;;;;;;5.50;4.60;;;17.00;99.90;;;;;;5021148;28;20506;-87
2022/05/18 02:07:00;;;;;;;6.13;4.07;;;16.90;99.90;;;;;;5018509;28;20912;-87
2022/05/18 02:09:27;;;;;;;9.40;4.80;;;17.00;99.90;;;;;;5018245;28;20524;-86
2022/05/18 02:11:55;;;;;;;7.10;4.60;;;17.00;99.90;;;;;;5019239;28;20861;-87
2022/05/18 02:14:26;;;;;;;5.13;4.00;;;16.90;99.90;;;;;;5019618;28;20839;-86
2022/05/18 02:16:54;;;;;;;9.50;4.87;;;16.80;99.90;;;;;;5018620;28;20451;-87
2022/05/18 02:19:21;;;;;;;6.07;4.33;;;16.80;99.90;;;;;;5017942;28;20947;-86
2022/05/18 02:21:49;;;;;;;5.20;4.10;;;16.80;99.90;;;;;;5017779;28;20489;-86
2022/05/18 02:24:16;;;;;;;8.50;4.97;;;16.70;99.90;;;;;;5018008;28;21009;-87
2022/05/18 02:26:44;;;;;;;5.87;4.23;;;16.70;99.90;;;;;;5016941;28;20553;-86
2022/05/18 02:29:11;;;;;;;7.80;4.87;;;16.60;99.90;;;;;;5016966;28;20954;-87
2022/05/18 02:31:40;;;;;;;7.80;4.27;;;16.60;99.90;;;;;;5017269;28;20438;-86
2022/05/18 02:34:07;;;;;;;7.33;4.70;;;16.50;99.90;;;;;;5020697;28;20462;-88
2022/05/18 02:36:34;;;;;;;6.73;4.70;;;16.60;99.90;;;;;;5022071;28;20454;-86
2022/05/18 02:39:01;;;;;;;6.80;4.10;;;16.60;99.90;;;;;;5031542;28;20455;-87
2022/05/18 02:41:28;;;;;;;9.10;4.63;;;16.60;99.90;;;;;;5032456;28;20478;-87
2022/05/18 02:43:55;;;;;;;6.40;4.60;;;16.70;99.90;;;;;;5026224;28;20561;-89
2022/05/18 02:46:23;;;;;;;5.83;4.20;;;16.70;99.90;;;;;;5021276;28;20484;-87
2022/05/18 02:48:52;;;;;;;7.10;4.90;;;16.70;99.90;;;;;;5018511;28;20458;-87
2022/05/18 02:51:22;;;;;;;9.23;5.03;;;16.70;99.90;;;;;;5017525;28;20508;-87
2022/05/18 02:53:49;;;;;;;8.47;4.50;;;16.80;99.90;;;;;;5017143;28;20489;-87
2022/05/18 02:56:23;;;;;;;7.53;5.17;;;16.80;99.90;;;;;;5017230;28;20442;-86
2022/05/18 02:58:52;;;;;;;8.33;4.40;;;16.80;99.90;;;;;;5017873;28;20631;-87
2022/05/18 03:01:21;;;;;;;11.90;5.27;;;16.80;99.90;;;;;;5016985;28;20478;-87
2022/05/18 03:03:49;;;;;;;6.17;4.80;;;16.70;99.90;;;;;;5018797;28;20479;-86
2022/05/18 03:06:20;;;;;;;8.67;4.60;;;16.70;99.90;;;;;;5018406;28;21010;-87
2022/05/18 03:08:47;;;;;;;8.40;5.00;;;16.50;99.90;;;;;;5022529;28;20830;-86
2022/05/18 03:11:16;;;;;;;6.20;4.53;;;16.60;99.90;;;;;;5024814;28;20504;-87
2022/05/18 03:13:43;;;;;;;5.67;3.93;;;16.60;99.90;;;;;;5025561;28;20480;-87
2022/05/18 03:16:14;;;;;;;7.07;4.60;;;16.60;99.90;;;;;;5028169;28;20497;-87
2022/05/18 03:18:41;;;;;;;5.20;3.87;;;16.70;99.90;;;;;;5027655;28;20873;-88
2022/05/18 03:23:55;;;;;;;7.47;5.40;;;16.50;99.90;;;;;;5038093;28;20466;-88
2022/05/18 03:26:24;;;;;;;8.77;5.00;;;16.50;99.90;;;;;;5035276;28;20457;-87
2022/05/18 03:28:54;;;;;;;7.03;4.63;;;16.50;99.90;;;;;;5031423;28;20469;-87
2022/05/18 03:31:21;;;;;;;11.10;4.57;;;16.50;99.90;;;;;;5019754;28;20449;-87
2022/05/18 03:33:48;;;;;;;5.10;4.10;;;16.50;99.90;;;;;;5017619;28;20485;-87
2022/05/18 03:36:18;;;;;;;8.93;4.63;;;16.50;99.90;;;;;;5016312;28;20450;-88
2022/05/18 03:38:47;;;;;;;7.40;4.93;;;16.40;99.90;;;;;;5016367;28;20506;-87
2022/05/18 03:41:22;;;;;;;5.57;4.50;;;16.40;99.90;;;;;;5016476;28;20564;-88
2022/05/18 03:43:49;;;;;;;7.00;4.50;;;16.50;99.90;;;;;;5017345;28;20462;-87
2022/05/18 03:46:17;;;;;;;7.27;4.63;;;16.40;99.90;;;;;;5033014;28;20447;-86
2022/05/18 03:48:44;;;;;;;8.80;4.70;;;16.40;99.90;;;;;;5035790;28;20443;-87
2022/05/18 03:51:13;;;;;;;6.97;4.50;;;16.40;99.90;;;;;;5036647;28;20409;-87
2022/05/18 03:53:41;;;;;;;9.00;5.23;;;16.40;99.90;;;;;;5036810;28;20541;-88
2022/05/18 03:56:08;;;;;;;8.30;5.17;;;16.40;99.90;;;;;;5057226;22;20494;-87
2022/05/18 03:58:37;;;;;;;10.20;5.50;;;16.30;99.90;;;;;;4995604;28;20448;-86
2022/05/18 04:01:08;;;;;;;7.30;4.90;;;16.30;99.90;;;;;;4995108;28;20874;-86
2022/05/18 04:03:36;;;;;;;9.97;5.60;;;16.30;99.90;;;;;;4995186;28;20798;-85
2022/05/18 04:06:03;;;;;;;10.50;5.97;;;16.30;99.90;;;;;;5002974;28;20483;-85
2022/05/18 04:08:30;;;;;;;7.97;5.30;;;16.30;99.90;;;;;;5011413;28;20483;-87
2022/05/18 04:10:57;;;;;;;8.13;5.10;;;16.40;99.90;;;;;;4997917;28;20541;-86
2022/05/18 04:13:25;;;;;;;7.07;4.83;;;16.20;99.90;;;;;;4998570;28;20429;-87
2022/05/18 04:15:55;;;;;;;11.47;5.90;;;16.30;99.90;;;;;;4996524;28;20481;-86
2022/05/18 04:18:23;;;;;;;8.70;5.20;;;16.20;99.90;;;;;;4995477;28;20475;-87
2022/05/18 04:20:50;;;;;;;7.50;5.13;;;16.10;99.90;;;;;;4997694;28;20454;-85
2022/05/18 04:23:18;;;;;;;6.03;5.00;;;16.20;99.90;;;;;;4999367;28;20540;-87
2022/05/18 04:25:45;;;;;;;7.40;5.20;;;16.20;99.90;;;;;;4998496;28;20467;-87
2022/05/18 04:28:13;;;;;;;7.23;4.87;;;16.30;99.90;;;;;;5007201;28;20497;-86
2022/05/18 04:30:41;;;;;;;9.53;5.50;;;16.30;99.90;;;;;;5008587;28;20912;-86
2022/05/18 04:33:10;;;;;;;9.00;5.00;;;16.30;99.90;;;;;;5004134;28;20486;-86
2022/05/18 04:35:37;;;;;;;8.10;5.37;;;16.30;99.90;;;;;;4994382;28;20471;-87
2022/05/18 04:38:03;;;;;;;8.03;4.90;;;16.40;99.90;;;;;;4994431;28;20558;-88
2022/05/18 04:40:30;;;;;;;8.30;5.07;;;16.50;99.90;;;;;;4993998;28;20465;-86
2022/05/18 04:42:57;;;;;;;6.10;4.77;;;16.60;99.90;;;;;;4994217;28;20495;-88
2022/05/18 04:45:25;;;;;;;7.03;4.40;;;16.70;99.90;;;;;;4998071;28;20783;-88
2022/05/18 04:47:55;;;;;;;7.40;5.10;;;16.80;99.90;;;;;;4994019;28;20932;-89
2022/05/18 04:50:23;;;;;;;6.17;4.20;;;16.90;99.90;;;;;;4998151;28;20490;-88
2022/05/18 04:52:50;;;;;;;7.20;5.10;;;17.00;99.90;;;;;;4998430;28;20793;-87
2022/05/18 04:55:18;;;;;;;6.27;5.00;;;16.90;99.90;;;;;;4997267;28;20471;-86
2022/05/18 04:57:44;;;;;;;9.93;5.90;;;16.90;99.90;;;;;;4997739;28;20466;-86
2022/05/18 05:00:14;;;;;;;9.73;5.47;;;17.00;99.90;;;;;;4998833;28;20486;-87
2022/05/18 05:02:42;;;;;;;10.50;5.50;;;17.00;99.90;;;;;;5002801;28;20629;-87
2022/05/18 05:05:14;;;;;;;7.90;4.50;;;17.00;99.90;;;;;;5012058;28;20834;-87
2022/05/18 05:07:42;;;;;;;8.23;5.07;;;17.10;99.90;;;;;;4998851;28;20443;-87
2022/05/18 05:10:10;;;;;;;6.93;5.23;;;17.10;99.90;;;;;;4998649;28;20482;-88
2022/05/18 05:12:37;;;;;;;7.00;4.53;;;17.20;99.90;;;;;;4998281;28;20990;-88
2022/05/18 05:15:05;;;;;;;8.43;5.60;;;17.30;99.90;;;;;;4998372;28;20514;-87
2022/05/18 05:17:33;;;;;;;7.17;5.60;;;17.40;99.90;;;;;;4998383;28;20463;-87
2022/05/18 05:20:01;;;;;;;8.10;5.60;;;17.40;99.90;;;;;;4999524;28;20509;-87
2022/05/18 05:22:28;;;;;;;7.07;5.50;;;17.60;99.90;;;;;;4997744;28;20992;-88
2022/05/18 05:25:01;;;;;;;8.43;5.77;;;17.60;99.90;;;;;;4998367;28;20451;-87
2022/05/18 05:27:28;;;;;;;6.40;4.70;;;17.70;99.90;;;;;;5016688;28;20490;-87
2022/05/18 05:29:55;;;;;;;7.87;5.60;;;17.80;99.90;;;;;;5015443;28;20508;-87
2022/05/18 05:32:22;;;;;;;8.23;5.50;;;17.80;99.90;;;;;;5011211;28;21023;-87
2022/05/18 05:34:49;;;;;;;7.60;5.73;;;17.80;99.90;;;;;;5003504;28;20515;-88
2022/05/18 05:37:16;;;;;;;10.13;5.43;;;17.90;99.90;;;;;;5015700;28;20455;-89
2022/05/18 05:39:43;;;;;;;9.23;5.13;;;18.00;99.90;;;;;;5008743;28;20440;-88
2022/05/18 05:42:42;;;;;;;6.63;5.30;;;18.10;99.90;;;;;;4998610;28;20502;-90
2022/05/18 05:45:10;;;;;;;8.43;6.07;;;18.20;99.90;;;;;;4997948;28;20460;-89
2022/05/18 05:47:37;;;;;;;11.33;6.80;;;18.40;99.90;;;;;;4998394;28;20471;-87
2022/05/18 05:50:04;;;;;;;8.17;5.30;;;18.40;99.90;;;;;;4999187;28;20455;-87
2022/05/18 05:52:31;;;;;;;12.83;6.00;;;18.50;99.90;;;;;;4996856;28;20459;-87
2022/05/18 05:54:59;;;;;;;9.03;5.40;;;18.60;99.90;;;;;;4998492;28;20879;-87
2022/05/18 05:57:27;;;;;;;7.10;5.53;;;18.80;99.90;;;;;;4996842;28;20818;-87
2022/05/18 06:00:07;;;;;;;11.03;6.30;;;18.90;99.90;;;;;;5006420;28;20537;-87
2022/05/18 06:02:34;;;;;;;16.17;6.47;;;19.10;99.90;;;;;;4998836;28;20526;-87
2022/05/18 06:05:03;;;;;;;11.83;6.10;;;19.20;99.90;;;;;;4996940;28;20471;-87
2022/05/18 06:07:29;;;;;;;15.70;6.43;;;19.30;99.90;;;;;;4996718;28;20556;-87
2022/05/18 06:09:57;;;;;;;8.97;6.43;;;19.50;99.90;;;;;;4999738;28;20522;-87
2022/05/18 06:12:29;;;;;;;11.00;6.60;;;19.70;99.90;;;;;;5003009;28;20456;-87
2022/05/18 06:14:59;;;;;;;13.33;7.00;;;19.90;99.90;;;;;;5002852;28;20412;-88
2022/05/18 06:17:27;;;;;;;8.97;6.00;;;19.80;99.90;;;;;;5000683;28;20483;-88
2022/05/18 06:19:54;;;;;;;13.40;7.80;;;19.80;99.90;;;;;;5004953;28;20428;-88
2022/05/18 06:22:21;;;;;;;15.20;6.87;;;19.90;99.90;;;;;;5012039;28;20486;-88
2022/05/18 06:24:51;;;;;;;8.13;5.67;;;20.10;99.90;;;;;;5003259;28;21010;-88
2022/05/18 06:27:18;;;;;;;8.13;5.50;;;20.20;99.90;;;;;;4999790;28;20464;-88
2022/05/18 06:29:48;;;;;;;8.50;5.20;;;20.30;99.90;;;;;;5000523;28;20807;-88
2022/05/18 06:32:16;;;;;;;8.00;5.27;;;20.50;99.90;;;;;;5000442;28;20937;-87
2022/05/18 06:34:45;;;;;;;10.10;5.23;;;20.50;99.90;;;;;;5002746;28;20517;-87
2022/05/18 06:37:15;;;;;;;9.53;5.63;;;20.70;99.90;;;;;;4999659;28;20475;-87
2022/05/18 06:39:42;;;;;;;7.63;5.53;;;20.80;99.90;;;;;;5001300;28;20475;-88
2022/05/18 06:42:09;;;;;;;10.67;5.30;;;20.70;99.90;;;;;;4999163;28;20574;-88
2022/05/18 06:44:36;;;;;;;9.17;5.70;;;20.80;99.90;;;;;;5001126;28;20453;-88
2022/05/18 06:47:06;;;;;;;8.60;4.43;;;20.90;99.90;;;;;;5002738;28;20475;-87
2022/05/18 06:49:32;;;;;;;11.43;4.83;;;21.00;99.90;;;;;;5002653;28;20518;-87
2022/05/18 06:51:59;;;;;;;7.23;3.80;;;21.10;99.90;;;;;;5001016;28;20451;-87
2022/05/18 06:54:26;;;;;;;8.13;4.67;;;21.10;99.90;;;;;;5002125;28;20562;-87
2022/05/18 06:56:53;;;;;;;7.07;4.97;;;21.30;99.90;;;;;;5016049;28;20483;-87
2022/05/18 06:59:20;;;;;;;9.00;6.97;;;21.50;99.90;;;;;;5016888;28;20439;-87
2022/05/18 07:01:47;;;;;;;6.57;4.87;;;21.50;99.90;;;;;;5015727;28;20629;-88
2022/05/18 07:04:15;;;;;;;11.77;4.60;;;21.40;99.90;;;;;;4999331;28;20451;-87
2022/05/18 07:06:45;;;;;;;9.13;4.67;;;21.50;99.90;;;;;;5012360;28;20471;-87
2022/05/18 07:09:14;;;;;;;8.50;4.70;;;21.60;99.90;;;;;;4997591;28;20447;-87
2022/05/18 07:11:41;;;;;;;6.20;4.37;;;21.80;99.90;;;;;;4997063;28;20444;-87
2022/05/18 07:14:08;;;;;;;8.83;4.37;;;21.90;99.90;;;;;;5003201;28;20477;-85
2022/05/18 07:16:35;;;;;;;6.93;4.70;;;22.00;99.90;;;;;;5007208;28;20554;-86
2022/05/18 07:19:02;;;;;;;9.73;4.13;;;22.10;99.90;;;;;;4997359;28;20451;-86
2022/05/18 07:21:31;;;;;;;7.03;4.40;;;22.00;99.90;;;;;;4996224;28;20541;-87
2022/05/18 07:23:58;;;;;;;7.43;4.70;;;22.10;99.90;;;;;;4996567;28;20455;-87
2022/05/18 07:26:26;;;;;;;8.50;5.13;;;22.30;99.90;;;;;;4997453;28;20495;-87
2022/05/18 07:28:53;;;;;;;6.63;4.57;;;22.30;99.90;;;;;;4995966;28;20473;-88
2022/05/18 07:31:20;;;;;;;5.40;3.80;;;22.40;99.90;;;;;;4997074;28;20461;-87
2022/05/18 07:33:47;;;;;;;7.60;4.00;;;22.50;99.90;;;;;;4996629;28;20451;-88
2022/05/18 07:36:14;;;;;;;8.07;5.33;;;22.50;99.90;;;;;;4995832;28;20483;-87
2022/05/18 07:38:44;;;;;;;10.87;4.40;;;22.40;99.90;;;;;;4997602;28;20522;-87
2022/05/18 07:41:13;;;;;;;5.93;4.50;;;22.60;99.90;;;;;;4995809;28;20490;-87
2022/05/18 07:43:41;;;;;;;5.77;4.43;;;22.60;99.90;;;;;;4995953;28;21043;-87
2022/05/18 07:46:10;;;;;;;8.80;5.10;;;22.70;99.20;;;;;;4996450;28;20468;-87
2022/05/18 07:48:38;;;;;;;6.27;4.93;;;22.70;99.00;;;;;;4995552;28;20542;-87
2022/05/18 07:51:05;;;;;;;9.33;4.60;;;22.80;98.90;;;;;;4996123;28;20530;-87
2022/05/18 07:53:32;;;;;;;6.37;4.43;;;23.00;98.40;;;;;;5002871;28;20443;-88
2022/05/18 07:56:00;;;;;;;7.37;4.50;;;23.10;97.90;;;;;;5013821;28;20507;-88
2022/05/18 07:58:27;;;;;;;6.10;4.40;;;23.00;97.70;;;;;;4999179;28;20467;-88
2022/05/18 08:00:54;;;;;;;8.30;4.50;;;23.10;97.50;;;;;;4997019;28;20463;-88
2022/05/18 08:03:28;;;;;;;7.50;4.00;;;23.20;97.10;;;;;;4997520;28;20487;-88
2022/05/18 08:05:57;;;;;;;7.70;3.90;;;23.20;96.70;;;;;;4998801;28;20804;-87
2022/05/18 08:08:28;;;;;;;7.57;5.20;;;23.30;96.70;;;;;;4999768;28;20510;-87
2022/05/18 08:16:30;;;;;;;9.40;4.83;;;23.60;96.40;;;;;;4995271;28;20967;-87
2022/05/18 08:18:58;;;;;;;8.33;4.80;;;23.70;96.60;;;;;;4996638;28;20494;-87
2022/05/18 08:21:25;;;;;;;11.03;6.13;;;23.80;96.10;;;;;;5003601;28;20822;-87
2022/05/18 08:24:01;;;;;;;7.77;5.20;;;23.80;95.80;;;;;;4999830;28;20487;-87
2022/05/18 08:26:31;;;;;;;6.67;4.93;;;23.90;95.80;;;;;;5001043;28;20554;-87
2022/05/18 08:29:00;;;;;;;6.50;4.80;;;23.90;95.70;;;;;;5003428;28;20468;-87
2022/05/18 08:31:27;;;;;;;8.53;5.03;;;23.90;95.70;;;;;;5007366;28;20439;-87
2022/05/18 08:33:54;;;;;;;6.00;4.07;;;23.90;95.70;;;;;;5011297;28;20471;-88
2022/05/18 08:36:23;;;;;;;6.50;4.67;;;24.00;95.00;;;;;;5001437;28;20526;-87
2022/05/18 08:38:51;;;;;;;11.47;5.20;;;24.10;95.10;;;;;;5001371;28;20463;-87
2022/05/18 08:41:21;;;;;;;5.90;5.00;;;24.10;94.70;;;;;;5000334;28;20530;-87
2022/05/18 08:43:51;;;;;;;8.50;4.80;;;24.10;94.80;;;;;;5000507;28;20513;-88
2022/05/18 08:46:29;;;;;;;6.70;4.60;;;24.10;94.90;;;;;;5000904;28;20502;-88
2022/05/18 08:49:05;;;;;;;8.37;4.90;;;24.30;94.80;;;;;;5004212;28;20813;-88
2022/05/18 08:51:43;;;;;;;7.10;5.07;;;24.30;94.50;;;;;;5001870;28;20920;-88
2022/05/18 08:54:40;;;;;;;6.03;4.63;;;24.30;94.60;;;;;;5016170;28;20486;-88
2022/05/18 08:57:17;;;;;;;6.20;4.73;;;24.30;94.00;;;;;;4996774;28;20505;-88
2022/05/18 08:59:49;;;;;;;8.90;4.50;;;24.40;94.00;;;;;;5002859;28;20435;-88
2022/05/18 09:02:21;;;;;;;7.73;5.27;;;24.50;93.80;;;;;;5005363;28;20439;-85
2022/05/18 09:04:55;;;;;;;7.00;4.60;;;24.50;92.90;;;;;;5003582;28;20474;-86
2022/05/18 09:07:27;;;;;;;6.23;4.20;;;24.60;92.60;;;;;;5000730;28;20507;-86
2022/05/18 09:10:16;;;;;;;6.70;4.03;;;24.60;92.90;;;;;;4999087;28;20881;-87
2022/05/18 09:12:45;;;;;;;7.00;4.33;;;24.60;92.80;;;;;;4999991;28;20444;-85
2022/05/18 09:15:15;;;;;;;7.03;4.07;;;24.60;93.10;;;;;;5006935;28;20459;-86
2022/05/18 09:17:53;;;;;;;5.37;3.83;;;24.70;93.00;;;;;;5003208;28;20453;-86
2022/05/18 09:20:23;;;;;;;7.30;4.10;;;24.80;92.50;;;;;;5000610;28;20466;-87
2022/05/18 09:23:15;;;;;;;7.20;4.00;;;24.80;92.10;;;;;;4999251;28;20479;-87
2022/05/18 09:25:54;;;;;;;9.03;5.00;;;24.80;91.70;;;;;;4998428;28;20846;-88
2022/05/18 09:28:37;;;;;;;7.63;4.40;;;24.90;92.20;;;;;;5001321;28;20435;-87
2022/05/18 09:31:13;;;;;;;9.33;4.47;;;25.10;92.10;;;;;;5003117;28;21004;-88
2022/05/18 09:33:59;;;;;;;5.23;3.90;;;25.00;92.10;;;;;;4998243;28;20447;-87
2022/05/18 09:37:03;;;;;;;6.30;4.10;;;25.00;91.80;;;;;;4997671;28;20511;-88
2022/05/18 09:39:35;;;;;;;8.93;4.50;;;25.00;91.90;;;;;;4997991;28;20451;-88
2022/05/18 09:42:06;;;;;;;6.77;4.40;;;25.00;91.50;;;;;;5003125;28;20467;-88
2022/05/18 09:44:45;;;;;;;6.97;3.70;;;25.10;91.00;;;;;;5003231;28;21054;-88
2022/05/18 09:47:15;;;;;;;7.07;4.47;;;25.30;91.00;;;;;;5007507;28;20502;-87
2022/05/18 09:49:48;;;;;;;6.97;4.33;;;25.10;91.40;;;;;;5005022;28;20513;-86
2022/05/18 09:52:18;;;;;;;5.70;4.00;;;25.10;91.20;;;;;;4998949;28;20440;-87
2022/05/18 09:54:46;;;;;;;7.90;4.47;;;25.10;91.20;;;;;;4996623;28;20435;-87
2022/05/18 09:57:24;;;;;;;5.03;3.50;;;25.10;90.50;;;;;;5062482;22;20478;-87
2022/05/18 09:59:59;;;;;;;5.47;3.73;;;25.10;90.00;;;;;;5038475;28;20457;-87
2022/05/18 10:08:22;;;;;;;7.33;3.80;;;25.60;86.90;;;;;;5016317;28;20463;-88
2022/05/18 10:11:06;;;;;;;6.03;4.20;;;25.50;88.20;;;;;;5004074;28;20518;-88
2022/05/18 10:13:45;;;;;;;6.93;4.40;;;25.60;88.30;;;;;;5005195;28;20556;-87
2022/05/18 10:16:22;;;;;;;7.50;4.40;;;25.60;88.80;;;;;;5002435;28;21000;-87
2022/05/18 10:19:02;;;;;;;6.00;3.83;;;25.60;84.20;;;;;;5002858;28;20457;-87
2022/05/18 10:21:39;;;;;;;5.37;3.37;;;25.60;82.80;;;;;;5005228;28;20893;-88
2022/05/18 10:24:24;;;;;;;6.80;3.80;;;25.50;84.00;;;;;;5008653;28;20475;-87
2022/05/18 10:27:42;;;;;;;5.57;3.50;;;25.70;82.10;;;;;;5008623;28;20479;-88
2022/05/18 10:30:26;;;;;;;11.40;4.40;;;25.80;83.50;;;;;;5004696;28;20532;-88
2022/05/18 10:33:02;;;;;;;7.97;3.70;;;25.90;83.70;;;;;;5003014;28;20542;-89
2022/05/18 10:35:48;;;;;;;9.67;4.10;;;25.90;81.00;;;;;;5001236;28;20939;-88
2022/05/18 10:41:48;;;;;;;7.30;3.70;;;26.10;79.10;;;;;;4993179;28;20470;-89
2022/05/18 10:44:42;;;;;;;5.60;3.80;;;26.10;78.40;;;;;;5018008;28;20494;-88
2022/05/18 10:47:38;;;;;;;6.17;3.80;;;26.10;77.80;;;;;;5017701;28;20464;-88
2022/05/18 10:50:29;;;;;;;7.07;3.73;;;26.10;77.90;;;;;;5015865;28;20435;-88
2022/05/18 10:53:00;;;;;;;5.63;4.10;;;26.10;78.40;;;;;;5014969;28;20431;-86
2022/05/18 10:55:34;;;;;;;4.80;3.33;;;26.20;78.10;;;;;;5017947;28;20436;-87
2022/05/18 10:58:52;;;;;;;5.00;2.60;;;26.20;76.30;;;;;;5017864;28;20462;-87
2022/05/18 11:04:32;;;;;;;5.53;3.50;;;26.30;72.00;;;;;;5002435;28;20827;-89
2022/05/18 11:07:00;;;;;;;5.27;3.07;;;26.30;75.00;;;;;;5007669;28;20487;-88
2022/05/18 11:09:36;;;;;;;6.47;3.83;;;26.30;76.40;;;;;;5010623;28;20493;-89
2022/05/18 11:12:37;;;;;;;8.17;4.27;;;26.20;77.20;;;;;;5009841;28;20522;-89
2022/05/18 11:15:18;;;;;;;5.13;3.70;;;26.30;78.20;;;;;;5003206;28;20490;-89
2022/05/18 11:18:09;;;;;;;6.50;4.10;;;26.30;78.30;;;;;;5002347;28;20479;-88
2022/05/18 11:20:57;;;;;;;8.20;3.83;;;26.30;77.00;;;;;;5001784;28;20494;-88
2022/05/18 11:23:54;;;;;;;6.00;3.70;;;26.30;77.70;;;;;;5006268;28;20480;-88
2022/05/18 11:27:01;;;;;;;7.33;4.17;;;26.30;76.80;;;;;;5001953;28;20487;-88
2022/05/18 11:30:12;;;;;;;5.57;3.63;;;26.50;76.60;;;;;;5004608;28;20887;-88
2022/05/18 11:33:11;;;;;;;11.33;4.00;;;26.50;76.50;;;;;;4978850;28;20475;-88
2022/05/18 11:39:16;;;;;;;8.33;4.20;;;26.50;72.90;;;;;;4980968;28;20482;-89
2022/05/18 11:42:15;;;;;;;6.50;4.30;;;26.60;72.20;;;;;;5014261;28;20416;-88
2022/05/18 11:48:17;;;;;;;5.70;4.10;;;26.70;71.50;;;;;;4975645;28;20502;-89
2022/05/18 11:51:26;;;;;;;11.87;8.10;;;26.70;74.50;;;;;;5006885;28;20474;-88
2022/05/18 11:56:56;;;;;;;5.70;3.37;;;26.90;73.90;;;;;;5001971;28;20481;-88
2022/05/18 12:00:01;;;;;;;4.80;3.57;;;26.90;73.00;;;;;;5004535;28;20935;-88
2022/05/18 12:03:22;;;;;;;5.93;3.70;;;26.90;72.30;;;;;;5016058;28;20454;-88
2022/05/18 12:06:24;;;;;;;6.60;3.80;;;26.90;72.40;;;;;;5014983;28;20462;-89
2022/05/18 12:09:24;;;;;;;;;;;;;;;;;;;;;
2022/05/18 12:12:03;;;;;;;6.90;4.03;;;26.80;72.70;;;;;;5008351;28;20917;-89
2022/05/18 12:17:41;;;;;;;6.87;3.13;;;26.90;72.10;;;;;;5017294;28;20514;-88
2022/05/18 12:20:22;;;;;;;6.07;3.83;;;26.90;72.00;;;;;;5020691;28;20431;-88
2022/05/18 12:22:52;;;;;;;5.57;3.20;;;27.10;72.30;;;;;;5014954;28;20461;-88
2022/05/18 12:25:24;;;;;;;5.27;3.70;;;27.00;71.10;;;;;;5011317;28;20542;-88
2022/05/18 12:28:00;;;;;;;7.80;3.00;;;27.00;71.40;;;;;;5007021;28;20815;-88
2022/05/18 12:30:30;;;;;;;5.20;3.63;;;26.90;72.20;;;;;;5011874;28;20502;-89
2022/05/18 12:32:58;;;;;;;6.70;3.10;;;27.00;71.70;;;;;;5011415;28;20416;-89
2022/05/18 12:35:41;;;;;;;6.60;4.10;;;27.00;71.10;;;;;;5010228;28;20453;-88
2022/05/18 12:38:32;;;;;;;6.33;3.20;;;27.00;71.40;;;;;;5006919;28;20479;-89
2022/05/18 12:41:10;;;;;;;6.10;3.30;;;27.00;70.70;;;;;;5005771;28;20506;-89
2022/05/18 12:43:43;;;;;;;6.20;3.67;;;26.90;69.80;;;;;;5005155;28;20498;-88
2022/05/18 12:46:26;;;;;;;5.30;3.03;;;26.90;69.70;;;;;;5012516;28;20550;-88
2022/05/18 12:49:02;;;;;;;5.87;3.80;;;27.00;69.20;;;;;;5017235;28;20468;-88
2022/05/18 12:55:16;;;;;;;7.33;3.30;;;27.10;70.40;;;;;;4999007;28;20455;-89
2022/05/18 12:57:52;;;;;;;6.20;3.70;;;27.20;70.70;;;;;;5005427;28;20529;-88
2022/05/18 13:01:03;;;;;;;5.60;3.80;;;27.30;70.10;;;;;;5009436;28;20467;-88
2022/05/18 13:04:00;;;;;;;7.33;4.43;;;27.20;71.10;;;;;;5006206;28;20483;-87
2022/05/18 13:06:58;;;;;;;5.67;3.87;;;27.30;70.00;;;;;;5010383;28;20454;-88
2022/05/18 13:09:47;;;;;;;4.60;3.10;;;27.40;69.50;;;;;;5019857;28;20444;-87
2022/05/18 13:12:49;;;;;;;4.77;3.30;;;27.30;68.90;;;;;;5019165;28;20463;-87
2022/05/18 13:15:53;;;;;;;7.03;3.90;;;27.40;69.20;;;;;;4917034;29;20463;-89
2022/05/18 13:18:39;;;;;;;5.30;3.43;;;27.60;68.50;;;;;;5020283;28;20435;-87
2022/05/18 13:21:29;;;;;;;6.30;3.03;;;27.70;66.60;;;;;;5019888;28;20503;-88
2022/05/18 13:24:07;;;;;;;6.53;3.30;;;27.70;66.70;;;;;;5020055;28;20471;-88
2022/05/18 13:26:43;;;;;;;8.30;3.40;;;27.80;65.90;;;;;;5009763;28;20471;-88
2022/05/18 13:29:34;;;;;;;5.73;3.27;;;27.80;65.50;;;;;;5009479;28;20511;-88
2022/05/18 13:32:08;;;;;;;5.97;3.97;;;27.80;66.20;;;;;;5009263;28;20451;-88
2022/05/18 13:34:51;;;;;;;5.23;3.43;;;27.80;66.40;;;;;;5006657;28;20445;-89
2022/05/18 13:37:21;;;;;;;4.93;3.20;;;27.90;66.00;;;;;;5007149;28;20546;-88
2022/05/18 13:39:53;;;;;;;5.20;3.40;;;27.90;66.00;;;;;;5004236;28;20562;-89
2022/05/18 13:42:39;;;;;;;5.23;3.30;;;27.90;66.20;;;;;;5005640;28;20498;-88
2022/05/18 13:45:13;;;;;;;5.83;3.40;;;27.80;65.70;;;;;;5005456;28;20491;-88
2022/05/18 13:47:58;;;;;;;8.30;4.20;;;27.80;65.50;;;;;;5064612;22;20499;-88
2022/05/18 13:50:33;;;;;;;5.60;3.90;;;27.70;66.20;;;;;;5013729;28;20440;-88
2022/05/18 13:53:08;;;;;;;5.00;3.70;;;27.90;66.30;;;;;;5018925;28;20431;-87
2022/05/18 13:55:47;;;;;;;4.50;3.20;;;28.00;65.30;;;;;;5019096;28;20439;-88
2022/05/18 13:58:23;;;;;;;5.90;3.30;;;28.00;64.40;;;;;;4999214;28;20472;-89
2022/05/18 14:01:03;;;;;;;6.60;4.03;;;28.00;64.60;;;;;;4990204;28;20476;-88
2022/05/18 14:03:40;;;;;;;4.80;3.37;;;28.10;64.10;;;;;;4985163;28;20456;-87